Time;durP1;ratioP1;P1;durP2;ratioP2;P2;SDS_P1;SDS_P2;PMS_P1;PMS_P2;Temp;Humidity;BMP_temperature;BMP_pressure;BME280_temperature;BME280_humidity;BME280_pressure;Samples;Min_cycle;Max_cycle;Signal;HPM_P1;HPM_P2
2023/09/09 00:02:14;;;;;;;10.05;7.00;;;21.20;69.20;;;22.90;51.51;97691.97;5021274;28;20056;-62
2023/09/09 00:04:42;;;;;;;10.23;8.32;;;21.20;69.60;;;22.90;51.57;97691.97;5020997;28;20041;-62
2023/09/09 00:07:11;;;;;;;10.35;8.18;;;21.20;69.80;;;22.89;51.65;97693.03;5017779;28;20030;-62
2023/09/09 00:09:41;;;;;;;9.93;8.00;;;21.20;69.50;;;22.88;51.54;97696.81;5017833;28;20049;-62
2023/09/09 00:12:08;;;;;;;8.68;7.45;;;21.20;69.40;;;22.85;51.42;97689.13;5016598;28;20038;-62
2023/09/09 00:14:37;;;;;;;8.35;7.47;;;21.10;70.20;;;22.83;51.73;97695.88;5026645;28;20064;-62
2023/09/09 00:17:04;;;;;;;10.23;7.43;;;21.10;70.30;;;22.84;52.11;97695.66;5021229;28;20064;-62
2023/09/09 00:19:34;;;;;;;12.88;10.35;;;21.10;70.50;;;22.81;51.97;97696.09;5021239;28;20049;-62
2023/09/09 00:22:01;;;;;;;13.10;10.38;;;21.10;70.50;;;22.78;52.03;97692.00;5018770;28;20054;-62
2023/09/09 00:24:29;;;;;;;11.32;8.90;;;21.10;70.70;;;22.77;51.86;97695.75;5016118;28;20038;-62
2023/09/09 00:26:59;;;;;;;11.00;9.00;;;21.10;70.80;;;22.76;52.14;97691.41;5019294;28;20041;-62
2023/09/09 00:29:27;;;;;;;8.77;7.88;;;21.00;70.60;;;22.71;52.00;97694.00;5019164;28;20050;-62
2023/09/09 00:31:55;;;;;;;10.13;7.97;;;21.00;71.00;;;22.69;52.21;97700.75;5034263;28;20045;-62
2023/09/09 00:34:23;;;;;;;9.23;8.30;;;20.90;71.20;;;22.64;52.37;97687.06;5022531;28;20050;-62
2023/09/09 00:36:50;;;;;;;8.90;8.00;;;20.90;71.30;;;22.60;52.34;97687.53;5016688;28;20330;-62
2023/09/09 00:39:18;;;;;;;10.45;8.88;;;20.90;71.50;;;22.59;52.26;97690.50;5020742;28;20045;-62
2023/09/09 00:41:45;;;;;;;9.52;7.90;;;20.80;71.10;;;22.57;52.64;97689.91;5035360;28;20061;-62
2023/09/09 00:44:13;;;;;;;9.60;8.40;;;20.90;71.70;;;22.56;52.38;97689.06;5011123;27;20041;-62
2023/09/09 00:46:43;;;;;;;9.02;8.13;;;20.80;71.60;;;22.55;52.33;97689.31;5027564;28;20053;-62
2023/09/09 00:49:10;;;;;;;10.23;7.85;;;20.80;71.90;;;22.53;52.77;97692.25;5019766;28;20037;-62
2023/09/09 00:51:38;;;;;;;14.40;9.02;;;20.80;72.20;;;22.50;52.99;97690.00;5020548;28;20042;-62
2023/09/09 00:54:06;;;;;;;8.57;7.60;;;20.70;72.50;;;22.48;52.89;97686.72;5017871;28;20492;-62
2023/09/09 00:56:34;;;;;;;10.82;8.73;;;20.70;72.40;;;22.47;52.83;97686.94;5014115;28;20060;-62
2023/09/09 00:59:02;;;;;;;10.15;8.52;;;20.70;72.30;;;22.45;53.00;97687.19;5017546;28;20505;-62
2023/09/09 01:01:31;;;;;;;9.52;7.88;;;20.70;72.50;;;22.44;53.04;97682.00;5015686;28;20038;-62
2023/09/09 01:03:59;;;;;;;9.80;8.18;;;20.70;72.60;;;22.41;53.08;97686.84;5018037;28;20046;-62
2023/09/09 01:06:27;;;;;;;9.35;8.45;;;20.70;72.90;;;22.39;53.09;97682.69;5020751;28;20504;-62
2023/09/09 01:08:55;;;;;;;11.55;9.68;;;20.60;73.10;;;22.37;53.27;97679.41;5017863;28;20045;-62
2023/09/09 01:11:22;;;;;;;9.63;7.95;;;20.60;73.00;;;22.36;53.01;97683.19;5021179;28;20501;-62
2023/09/09 01:13:50;;;;;;;10.45;8.25;;;20.60;73.10;;;22.34;53.33;97688.84;5017820;28;20046;-63
2023/09/09 01:16:18;;;;;;;10.00;8.68;;;20.60;73.40;;;22.35;53.60;97681.53;5004307;28;20042;-62
2023/09/09 01:18:47;;;;;;;10.55;9.18;;;20.60;73.50;;;22.33;53.81;97684.50;5053616;28;20055;-62
2023/09/09 01:21:18;;;;;;;10.05;9.02;;;20.60;74.10;;;22.34;54.10;97685.31;5015868;28;20108;-62
2023/09/09 01:23:46;;;;;;;10.65;9.43;;;20.70;74.60;;;22.35;54.08;97684.22;5022918;28;20042;-62
2023/09/09 01:26:14;;;;;;;10.25;9.20;;;20.70;74.40;;;22.36;54.09;97686.72;4993988;28;20523;-62
2023/09/09 01:28:42;;;;;;;10.68;9.45;;;20.80;74.20;;;22.36;54.34;97686.72;5028313;28;20045;-62
2023/09/09 01:31:10;;;;;;;12.25;9.65;;;20.80;74.00;;;22.39;54.12;97690.84;5017293;28;20049;-62
2023/09/09 01:33:37;;;;;;;12.23;9.10;;;20.80;73.80;;;22.37;54.06;97682.97;5014753;28;20057;-62
2023/09/09 01:36:05;;;;;;;9.90;8.90;;;20.80;74.00;;;22.37;54.14;97690.25;5029429;28;20527;-62
2023/09/09 01:38:34;;;;;;;12.23;9.93;;;20.80;73.80;;;22.37;54.01;97690.25;5022742;28;20512;-62
2023/09/09 01:41:05;;;;;;;10.55;9.48;;;20.70;74.00;;;22.36;54.28;97686.72;5017780;28;20048;-62
2023/09/09 01:43:34;;;;;;;10.73;8.98;;;20.70;74.10;;;22.36;54.17;97688.63;5002522;28;20046;-62
2023/09/09 01:46:03;;;;;;;9.38;8.38;;;20.70;74.40;;;22.35;54.31;97685.09;5018724;28;20042;-62
2023/09/09 01:48:30;;;;;;;9.60;8.50;;;20.70;74.20;;;22.33;54.34;97689.91;5022107;28;20060;-62
2023/09/09 01:50:58;;;;;;;10.85;9.63;;;20.80;74.30;;;22.34;54.77;97688.03;5018446;28;20046;-62
2023/09/09 01:53:27;;;;;;;12.32;9.50;;;20.70;74.60;;;22.33;54.79;97692.63;5019543;28;20037;-62
2023/09/09 01:55:58;;;;;;;12.75;9.90;;;20.70;74.70;;;22.34;54.67;97696.16;5026494;28;20073;-62
2023/09/09 01:58:27;;;;;;;9.98;8.98;;;20.80;74.70;;;22.32;54.61;97693.69;5004605;28;20049;-62
2023/09/09 02:00:54;;;;;;;11.38;8.77;;;20.70;74.70;;;22.31;54.61;97693.91;5017827;28;20053;-62
2023/09/09 02:03:22;;;;;;;11.98;9.93;;;20.80;74.50;;;22.32;54.80;97692.84;5026331;28;20404;-62
2023/09/09 02:05:50;;;;;;;12.45;9.70;;;20.80;74.50;;;22.32;54.76;97687.44;5034466;28;20519;-62
2023/09/09 02:08:17;;;;;;;12.48;9.80;;;20.80;74.40;;;22.31;54.41;97691.19;5015295;28;20042;-62
2023/09/09 02:10:50;;;;;;;11.15;10.05;;;20.70;74.50;;;22.28;54.58;97687.06;5026598;28;20041;-62
2023/09/09 02:13:17;;;;;;;11.00;9.90;;;20.60;74.80;;;22.27;54.37;97690.00;5017954;28;20037;-62
2023/09/09 02:15:45;;;;;;;10.48;9.43;;;20.60;75.00;;;22.24;54.52;97685.88;5026052;28;20045;-62
2023/09/09 02:18:12;;;;;;;11.15;10.00;;;20.50;75.10;;;22.22;54.47;97688.00;5015760;28;20054;-62
2023/09/09 02:20:40;;;;;;;10.15;9.15;;;20.50;75.30;;;22.18;54.83;97684.91;5021767;28;20053;-62
2023/09/09 02:23:08;;;;;;;11.95;9.93;;;20.50;75.80;;;22.17;55.00;97680.53;5017016;28;20058;-62
2023/09/09 02:25:36;;;;;;;10.63;9.32;;;20.40;76.00;;;22.14;54.80;97686.44;5019481;28;20053;-62
2023/09/09 02:28:04;;;;;;;12.48;10.32;;;20.40;76.20;;;22.13;55.16;97686.69;5018415;28;20389;-62
2023/09/09 02:30:32;;;;;;;11.50;9.75;;;20.40;76.30;;;22.14;54.96;97682.88;5014806;28;20046;-62
2023/09/09 02:33:00;;;;;;;12.48;9.48;;;20.50;76.20;;;22.14;54.93;97680.19;5035534;28;20057;-62
2023/09/09 02:35:27;;;;;;;11.63;10.10;;;20.50;75.80;;;22.14;54.83;97686.44;5019255;28;20046;-62
2023/09/09 02:37:56;;;;;;;10.73;9.45;;;20.50;75.50;;;22.14;55.01;97682.88;5034300;28;20053;-62
2023/09/09 02:40:24;;;;;;;10.57;9.45;;;20.50;75.40;;;22.12;55.08;97682.31;5027661;28;20046;-62
2023/09/09 02:42:51;;;;;;;12.13;10.32;;;20.40;75.70;;;22.10;54.94;97685.28;5033444;28;20054;-62
2023/09/09 02:45:19;;;;;;;11.25;9.85;;;20.40;75.90;;;22.07;54.90;97682.19;5028125;28;20049;-62
2023/09/09 02:47:47;;;;;;;16.73;11.10;;;20.30;76.30;;;22.05;55.07;97681.59;5027832;28;20048;-62
2023/09/09 02:50:15;;;;;;;11.25;10.15;;;20.30;76.40;;;22.02;54.94;97681.03;5020540;28;20069;-62
2023/09/09 02:52:42;;;;;;;13.73;10.57;;;20.30;76.50;;;22.00;55.18;97680.44;5036588;28;20050;-62
2023/09/09 02:55:10;;;;;;;11.52;10.32;;;20.30;76.50;;;21.97;55.37;97688.19;5019474;28;20428;-62
2023/09/09 02:57:38;;;;;;;13.40;10.85;;;20.20;76.90;;;21.93;55.42;97682.41;5015129;28;20057;-63
2023/09/09 03:00:09;;;;;;;11.05;9.82;;;20.20;77.10;;;21.93;55.30;97678.88;5020668;28;20496;-62
2023/09/09 03:02:36;;;;;;;12.38;9.75;;;20.20;76.80;;;21.94;55.27;97670.50;5017404;28;20062;-62
2023/09/09 03:05:05;;;;;;;12.45;10.55;;;20.20;76.70;;;21.93;55.38;97677.00;5026469;28;20052;-62
2023/09/09 03:07:32;;;;;;;10.90;9.80;;;20.20;76.80;;;21.95;55.48;97676.75;5022401;28;20044;-62
2023/09/09 03:10:00;;;;;;;11.65;10.13;;;20.30;76.70;;;21.94;55.47;97683.22;5022065;28;20397;-62
2023/09/09 03:12:28;;;;;;;10.88;9.57;;;20.20;76.60;;;21.93;55.03;97682.41;5023038;28;20061;-62
2023/09/09 03:14:56;;;;;;;11.40;10.18;;;20.20;76.80;;;21.92;55.49;97674.50;5022081;28;20052;-62
2023/09/09 03:17:23;;;;;;;11.23;9.70;;;20.20;77.10;;;21.89;55.09;97683.94;5034460;28;20044;-62
2023/09/09 03:19:51;;;;;;;11.73;9.90;;;20.20;77.20;;;21.89;55.66;97680.38;5028199;28;20042;-62
2023/09/09 03:22:19;;;;;;;13.45;11.05;;;20.10;77.20;;;21.88;55.53;97685.00;5029119;27;20439;-62
2023/09/09 03:24:47;;;;;;;13.18;9.60;;;20.20;77.10;;;21.90;55.40;97684.75;5022056;28;20042;-62
2023/09/09 03:27:15;;;;;;;14.05;10.07;;;20.20;76.80;;;21.90;55.22;97680.16;5028613;28;20045;-62
2023/09/09 03:29:43;;;;;;;14.23;9.88;;;20.20;76.60;;;21.90;55.54;97673.91;5022274;28;20048;-62
2023/09/09 03:32:12;;;;;;;11.57;10.25;;;20.30;76.40;;;21.89;55.64;97681.22;5011074;28;20046;-62
2023/09/09 03:34:40;;;;;;;13.20;9.57;;;20.30;76.40;;;21.88;55.14;97670.63;5038167;27;20067;-62
2023/09/09 03:37:08;;;;;;;11.15;8.98;;;20.30;76.50;;;21.89;55.28;97674.97;5002654;28;20057;-62
2023/09/09 03:39:36;;;;;;;10.35;9.25;;;20.30;76.50;;;21.88;55.20;97671.44;5012170;28;20500;-62
2023/09/09 03:42:04;;;;;;;10.05;9.00;;;20.20;76.40;;;21.87;55.58;97679.78;5020281;28;20045;-62
2023/09/09 03:44:32;;;;;;;11.05;9.98;;;20.20;76.50;;;21.86;55.34;97675.44;5018108;28;20046;-62
2023/09/09 03:46:59;;;;;;;11.35;10.15;;;20.20;76.70;;;21.85;55.07;97679.19;5026165;28;20057;-62
2023/09/09 03:49:28;;;;;;;12.13;10.02;;;20.10;76.80;;;21.80;55.37;97675.31;5020248;28;20053;-62
2023/09/09 03:51:55;;;;;;;12.15;9.48;;;20.10;77.00;;;21.78;55.39;97665.78;5036415;28;20038;-62
2023/09/09 03:54:23;;;;;;;11.40;10.15;;;20.10;77.00;;;21.75;55.57;97672.50;5018957;28;20053;-62
2023/09/09 03:56:51;;;;;;;13.18;10.30;;;20.10;77.30;;;21.73;56.00;97677.31;5036793;28;20053;-62
2023/09/09 03:59:19;;;;;;;12.20;10.00;;;20.00;77.60;;;21.69;55.88;97675.28;5057430;28;20102;-62
2023/09/09 04:01:46;;;;;;;10.48;9.38;;;19.90;78.00;;;21.66;55.97;97678.47;5114841;27;20457;-62
2023/09/09 04:04:14;;;;;;;12.77;9.98;;;19.90;78.30;;;21.63;56.06;97680.59;5003390;28;20053;-62
2023/09/09 04:06:42;;;;;;;13.38;10.70;;;19.90;78.50;;;21.63;56.15;97677.03;5024247;28;20042;-62
2023/09/09 04:09:09;;;;;;;11.52;9.75;;;19.90;78.30;;;21.60;56.06;97686.47;5059380;28;20046;-62
2023/09/09 04:11:37;;;;;;;10.88;9.18;;;19.80;78.10;;;21.57;56.11;97677.97;5020628;28;20107;-62
2023/09/09 04:14:05;;;;;;;11.13;8.93;;;19.80;78.20;;;21.53;56.12;97682.19;5020594;28;20049;-62
2023/09/09 04:16:33;;;;;;;13.30;10.25;;;19.80;78.70;;;21.49;56.25;97681.00;5018016;28;20388;-62
2023/09/09 04:19:01;;;;;;;12.95;9.32;;;19.70;78.60;;;21.48;55.86;97682.06;5017941;28;20493;-61
2023/09/09 04:21:29;;;;;;;12.38;8.63;;;19.70;78.40;;;21.44;56.23;97681.69;5035880;28;20050;-62
2023/09/09 04:23:56;;;;;;;9.70;8.48;;;19.70;78.40;;;21.40;56.23;97680.47;5054163;28;20049;-62
2023/09/09 04:26:24;;;;;;;10.57;9.48;;;19.60;78.80;;;21.38;56.34;97680.72;5020936;28;20045;-62
2023/09/09 04:28:52;;;;;;;12.02;9.70;;;19.60;78.70;;;21.35;56.01;97680.34;5019563;28;20038;-62
2023/09/09 04:31:20;;;;;;;11.30;10.10;;;19.60;78.70;;;21.31;56.11;97679.97;5017864;28;20064;-62
2023/09/09 04:33:48;;;;;;;10.52;8.75;;;19.50;78.90;;;21.30;56.14;97685.59;5033999;28;20485;-62
2023/09/09 04:36:16;;;;;;;14.07;10.18;;;19.50;78.90;;;21.27;56.41;97686.06;5031166;28;20053;-62
2023/09/09 04:38:43;;;;;;;9.50;8.48;;;19.50;79.30;;;21.23;56.18;97685.72;5070305;27;20393;-62
2023/09/09 04:41:11;;;;;;;9.88;8.48;;;19.50;79.40;;;21.21;56.45;97687.81;5020530;28;20045;-62
2023/09/09 04:43:39;;;;;;;10.57;9.50;;;19.40;79.50;;;21.18;56.71;97690.97;5021135;28;20508;-62
2023/09/09 04:46:07;;;;;;;11.10;9.88;;;19.40;79.70;;;21.15;56.80;97702.25;5035647;28;20073;-62
2023/09/09 04:48:35;;;;;;;11.35;10.10;;;19.30;80.00;;;21.10;56.35;97692.13;5019603;28;20361;-62
2023/09/09 04:51:03;;;;;;;10.05;8.40;;;19.20;80.10;;;21.08;56.83;97694.22;5003620;28;20042;-62
2023/09/09 04:53:31;;;;;;;11.23;8.60;;;19.20;80.00;;;21.04;56.81;97693.84;5033947;28;20378;-62
2023/09/09 04:56:00;;;;;;;9.88;8.88;;;19.20;80.30;;;21.02;56.87;97693.25;5026085;28;20425;-62
2023/09/09 04:58:29;;;;;;;10.20;9.20;;;19.20;80.20;;;21.03;56.73;97694.06;5018936;28;20378;-62
2023/09/09 05:00:58;;;;;;;11.07;9.45;;;19.20;80.30;;;21.01;56.95;97690.75;5037315;28;20060;-63
2023/09/09 05:03:25;;;;;;;11.57;9.02;;;19.20;80.30;;;20.97;56.85;97689.56;5022114;28;20054;-62
2023/09/09 05:05:53;;;;;;;11.45;9.27;;;19.20;80.40;;;20.97;57.23;97692.28;5016278;28;20050;-62
2023/09/09 05:08:21;;;;;;;10.25;8.25;;;19.20;81.10;;;20.94;57.51;97698.97;5025128;28;20384;-62
2023/09/09 05:10:48;;;;;;;10.77;8.77;;;19.10;81.60;;;20.93;57.64;97702.72;5018913;28;20041;-62
2023/09/09 05:13:16;;;;;;;15.40;10.27;;;19.10;81.90;;;20.92;57.60;97703.78;5026207;28;20046;-62
2023/09/09 05:15:44;;;;;;;13.23;10.00;;;19.10;82.00;;;20.90;57.41;97696.94;5021336;28;20042;-62
2023/09/09 05:18:11;;;;;;;10.50;9.45;;;19.00;82.20;;;20.88;57.46;97708.00;5019003;28;20398;-64
2023/09/09 05:20:39;;;;;;;11.32;9.05;;;19.00;82.10;;;20.89;57.21;97706.94;5017013;28;20492;-64
2023/09/09 05:23:07;;;;;;;10.98;9.30;;;19.10;82.10;;;20.90;57.54;97702.34;5019168;28;20404;-64
2023/09/09 05:25:34;;;;;;;11.65;9.52;;;19.10;81.70;;;20.91;57.63;97712.13;5002121;28;20076;-64
2023/09/09 05:28:03;;;;;;;10.50;9.02;;;19.10;81.60;;;20.91;57.67;97701.31;5028570;27;20053;-64
2023/09/09 05:30:30;;;;;;;11.73;8.95;;;19.20;81.60;;;20.92;57.84;97711.06;5017611;28;20056;-63
2023/09/09 05:32:58;;;;;;;11.30;9.27;;;19.20;81.40;;;20.92;57.43;97714.59;5016471;28;20046;-63
2023/09/09 05:35:26;;;;;;;9.80;8.57;;;19.20;81.30;;;20.92;57.31;97711.06;5017459;28;20042;-63
2023/09/09 05:37:54;;;;;;;10.55;9.38;;;19.20;81.30;;;20.93;57.86;97710.84;5028725;28;20041;-63
2023/09/09 05:40:22;;;;;;;11.50;9.63;;;19.20;81.50;;;20.94;57.67;97711.69;5016399;28;20377;-63
2023/09/09 05:42:49;;;;;;;13.60;9.38;;;19.20;81.50;;;20.95;57.80;97713.31;5015130;28;20124;-63
2023/09/09 05:45:17;;;;;;;10.65;9.52;;;19.30;81.50;;;20.96;57.51;97717.69;5007944;28;20056;-63
2023/09/09 05:47:45;;;;;;;10.65;9.13;;;19.30;81.30;;;20.97;58.02;97725.56;5028351;28;20045;-62
2023/09/09 05:50:13;;;;;;;11.60;9.60;;;19.30;81.40;;;20.99;57.64;97728.88;5018217;28;20056;-64
2023/09/09 05:52:42;;;;;;;12.23;10.93;;;19.30;81.40;;;21.00;58.17;97732.44;5026434;28;20045;-63
2023/09/09 05:55:10;;;;;;;16.73;13.27;;;19.30;82.00;;;21.01;57.88;97734.06;5018904;28;20501;-62
2023/09/09 05:57:39;;;;;;;14.88;12.68;;;19.40;82.00;;;21.01;58.01;97731.34;5043869;27;20531;-63
2023/09/09 06:00:09;;;;;;;16.13;13.75;;;19.40;82.00;;;21.03;58.37;97732.81;5034451;28;20050;-63
2023/09/09 06:02:39;;;;;;;15.07;13.50;;;19.50;81.80;;;21.08;58.18;97739.41;5016046;28;20072;-63
2023/09/09 06:05:09;;;;;;;15.20;13.15;;;19.50;82.00;;;21.11;58.20;97739.78;5033051;28;20497;-62
2023/09/09 06:07:37;;;;;;;14.20;12.13;;;19.50;81.70;;;21.09;58.61;97744.56;5033159;28;20053;-61
2023/09/09 06:10:09;;;;;;;13.80;11.88;;;19.50;82.20;;;21.11;58.34;97745.19;5027584;28;20404;-61
2023/09/09 06:12:37;;;;;;;14.43;12.85;;;19.50;82.00;;;21.13;58.28;97739.53;5014999;28;20054;-61
2023/09/09 06:15:06;;;;;;;13.25;11.13;;;19.50;82.10;;;21.15;58.61;97737.44;5031902;28;20050;-62
2023/09/09 06:17:36;;;;;;;17.17;13.02;;;19.60;82.10;;;21.17;58.26;97738.88;5036090;28;20049;-61
2023/09/09 06:20:05;;;;;;;12.35;11.15;;;19.60;82.00;;;21.20;58.57;97741.13;5041138;28;20050;-63
2023/09/09 06:22:34;;;;;;;13.55;12.10;;;19.70;82.10;;;21.24;58.62;97749.63;5022282;28;20057;-63
2023/09/09 06:25:04;;;;;;;13.60;12.07;;;19.70;82.00;;;21.29;58.43;97743.53;5029856;28;20126;-61
2023/09/09 06:27:31;;;;;;;12.82;11.38;;;19.80;81.80;;;21.33;58.62;97739.31;5022562;28;20056;-62
2023/09/09 06:29:59;;;;;;;12.20;10.75;;;19.80;81.40;;;21.37;58.60;97751.34;5038379;28;20057;-63
2023/09/09 06:32:27;;;;;;;13.60;11.45;;;19.90;81.70;;;21.40;58.62;97749.00;5021265;28;20046;-62
2023/09/09 06:34:55;;;;;;;14.43;11.13;;;19.90;81.70;;;21.46;58.65;97752.72;5021055;28;20072;-62
2023/09/09 06:37:24;;;;;;;13.02;11.70;;;20.00;81.80;;;21.51;58.82;97760.16;5014003;28;20053;-63
2023/09/09 06:39:51;;;;;;;12.98;10.88;;;20.00;81.60;;;21.56;58.78;97757.59;5019668;28;20524;-62
2023/09/09 06:42:19;;;;;;;11.30;10.18;;;20.10;81.70;;;21.63;58.91;97758.31;5022356;28;20304;-62
2023/09/09 06:44:51;;;;;;;13.00;10.00;;;20.20;81.40;;;21.68;58.64;97760.34;5005436;28;20053;-62
2023/09/09 06:47:19;;;;;;;17.80;10.90;;;20.30;81.50;;;21.74;58.50;97762.13;5022378;28;20045;-62
2023/09/09 06:49:48;;;;;;;12.88;11.02;;;20.30;81.10;;;21.79;58.92;97760.38;5026459;28;20037;-62
2023/09/09 06:52:16;;;;;;;16.33;11.98;;;20.40;80.80;;;21.85;59.09;97766.75;5032913;28;20049;-61
2023/09/09 06:54:44;;;;;;;16.40;11.63;;;20.50;81.30;;;21.89;58.92;97770.66;5021007;28;20046;-63
2023/09/09 06:57:11;;;;;;;12.65;11.35;;;20.60;80.40;;;21.93;58.63;97771.84;5040920;27;20069;-62
2023/09/09 06:59:39;;;;;;;15.45;11.00;;;20.60;79.90;;;21.99;58.26;97767.38;5036283;28;20049;-63
2023/09/09 07:02:07;;;;;;;12.73;9.60;;;20.60;79.70;;;22.02;58.45;97772.34;5032221;28;20056;-62
2023/09/09 07:04:35;;;;;;;17.58;10.88;;;20.70;79.70;;;22.08;58.46;97773.28;5023429;28;20060;-63
2023/09/09 07:07:03;;;;;;;12.40;9.70;;;20.80;79.30;;;22.13;58.42;97776.16;5025447;28;20045;-63
2023/09/09 07:09:39;;;;;;;11.38;9.73;;;20.80;79.40;;;22.19;57.88;97778.75;5023130;28;20053;-60
2023/09/09 07:12:09;;;;;;;13.05;11.68;;;20.80;79.20;;;22.23;58.17;97776.41;5022239;28;20046;-60
2023/09/09 07:14:37;;;;;;;11.13;9.55;;;20.90;79.40;;;22.29;57.92;97782.81;5023770;28;20417;-60
2023/09/09 07:17:09;;;;;;;10.82;9.65;;;21.00;79.00;;;22.31;57.83;97777.97;5025778;28;20044;-61
2023/09/09 07:19:37;;;;;;;11.30;9.38;;;21.10;78.60;;;22.36;57.76;97778.09;5023584;28;20597;-61
2023/09/09 07:22:06;;;;;;;10.95;9.93;;;21.10;78.10;;;22.38;57.84;97774.09;5022214;28;20053;-61
2023/09/09 07:24:34;;;;;;;11.82;9.77;;;21.20;77.80;;;22.44;57.40;97780.47;5021895;28;20052;-61
2023/09/09 07:27:03;;;;;;;12.27;9.40;;;21.20;78.40;;;22.47;57.64;97779.16;5025205;28;20049;-60
2023/09/09 07:29:31;;;;;;;10.95;9.82;;;21.30;77.70;;;22.51;57.72;97786.63;5021870;28;20361;-61
2023/09/09 07:31:58;;;;;;;10.70;9.60;;;21.30;77.40;;;22.56;57.43;97791.31;5018541;28;20046;-60
2023/09/09 07:34:26;;;;;;;10.10;9.10;;;21.40;76.80;;;22.59;57.25;97785.44;5018330;28;20162;-62
2023/09/09 07:36:54;;;;;;;11.30;9.13;;;21.40;76.70;;;22.64;57.50;97788.25;5020895;28;20048;-61
2023/09/09 07:39:22;;;;;;;10.40;9.23;;;21.50;76.70;;;22.68;57.21;97775.91;5022089;28;20436;-59
2023/09/09 07:41:49;;;;;;;10.98;9.88;;;21.60;76.30;;;22.75;57.23;97778.47;5021999;28;20042;-60
2023/09/09 07:44:17;;;;;;;9.63;8.70;;;21.60;76.10;;;22.79;57.02;97783.19;5029686;28;20042;-60
2023/09/09 07:46:44;;;;;;;14.52;10.13;;;21.60;75.80;;;22.82;56.94;97779.19;5021990;28;20050;-61
2023/09/09 07:49:13;;;;;;;10.85;9.60;;;21.70;76.20;;;22.82;57.16;97787.34;5024274;28;20041;-61
2023/09/09 07:51:41;;;;;;;10.43;9.05;;;21.80;76.10;;;22.87;57.34;97779.28;5022650;28;20493;-61
2023/09/09 07:54:08;;;;;;;10.98;9.38;;;21.80;76.10;;;22.94;57.07;97780.00;5025205;28;20374;-61
2023/09/09 07:56:36;;;;;;;11.38;9.68;;;21.80;75.90;;;22.95;57.41;97781.66;5022063;28;20068;-61
2023/09/09 07:59:04;;;;;;;11.20;10.00;;;21.90;76.70;;;23.01;57.51;97788.00;5022075;28;20751;-61
2023/09/09 08:01:31;;;;;;;10.07;9.02;;;21.90;77.00;;;23.09;57.49;97778.69;5021586;28;20045;-61
2023/09/09 08:03:59;;;;;;;11.95;9.65;;;22.00;77.40;;;23.12;57.47;97789.91;5023118;28;20053;-61
2023/09/09 08:06:27;;;;;;;11.25;9.27;;;22.00;76.40;;;23.16;57.54;97788.38;5023775;28;20053;-60
2023/09/09 08:08:55;;;;;;;10.65;9.30;;;22.20;76.30;;;23.21;57.23;97801.25;5021088;28;20040;-61
2023/09/09 08:11:22;;;;;;;10.50;8.85;;;22.20;75.80;;;23.26;57.49;97795.91;5024975;28;20056;-61
2023/09/09 08:13:50;;;;;;;10.23;9.02;;;22.20;75.90;;;23.26;57.40;97795.09;5023543;28;20049;-61
2023/09/09 08:16:17;;;;;;;10.30;9.23;;;22.30;76.20;;;23.34;57.32;97798.28;5021538;28;20057;-61
2023/09/09 08:18:46;;;;;;;9.80;8.80;;;22.30;76.00;;;23.39;57.17;97803.81;5022614;28;20053;-61
2023/09/09 08:21:14;;;;;;;11.35;9.38;;;22.40;75.70;;;23.40;57.00;97799.22;5023649;28;20053;-61
2023/09/09 08:23:42;;;;;;;10.48;9.48;;;22.40;75.30;;;23.48;56.98;97798.84;5022713;28;20042;-61
2023/09/09 08:26:12;;;;;;;12.82;9.15;;;22.50;75.30;;;23.54;56.78;97807.91;5023011;28;20034;-61
2023/09/09 08:28:40;;;;;;;10.02;9.02;;;22.50;75.10;;;23.58;56.31;97809.06;5023323;28;20056;-61
2023/09/09 08:31:07;;;;;;;10.20;9.20;;;22.60;74.70;;;23.62;56.65;97810.25;5020606;28;20064;-61
2023/09/09 08:33:35;;;;;;;9.40;8.55;;;22.60;74.90;;;23.68;56.35;97812.00;5020823;28;20037;-61
2023/09/09 08:36:04;;;;;;;12.57;9.57;;;22.60;74.70;;;23.67;56.36;97810.34;5021964;28;20329;-60
2023/09/09 08:38:31;;;;;;;9.10;8.20;;;22.70;74.10;;;23.72;56.14;97813.16;5024414;28;20497;-61
2023/09/09 08:41:24;;;;;;;9.80;8.90;;;22.70;74.30;;;23.76;56.13;97806.16;5018938;28;20421;-61
2023/09/09 08:44:17;;;;;;;11.00;9.20;;;22.70;73.90;;;23.83;55.88;97811.50;5099595;27;20045;-61
2023/09/09 08:46:45;;;;;;;12.25;10.07;;;22.80;73.70;;;23.86;55.88;97813.72;5023044;28;20049;-61
2023/09/09 08:49:17;;;;;;;11.70;9.35;;;22.80;73.90;;;23.91;55.35;97813.81;5027097;28;20409;-61
2023/09/09 08:51:55;;;;;;;9.45;8.45;;;22.80;72.80;;;23.93;55.27;97811.69;5026562;28;20053;-61
2023/09/09 08:54:25;;;;;;;9.65;8.50;;;22.90;72.10;;;23.96;54.91;97819.38;5089107;28;20052;-61
2023/09/09 08:56:54;;;;;;;9.20;7.88;;;22.90;71.70;;;23.98;54.59;97817.22;5109301;28;20046;-62
2023/09/09 08:59:22;;;;;;;9.40;8.38;;;23.00;70.50;;;24.05;54.80;97817.06;5109282;28;20063;-61
2023/09/09 09:01:51;;;;;;;10.15;8.10;;;23.10;71.70;;;24.10;54.76;97813.63;5109246;28;20109;-61
2023/09/09 09:04:21;;;;;;;9.77;8.73;;;23.10;71.50;;;24.15;54.86;97813.72;5044643;28;20052;-61
2023/09/09 09:06:50;;;;;;;10.82;8.65;;;23.00;71.50;;;24.19;54.67;97814.88;5024646;28;20053;-61
2023/09/09 09:09:17;;;;;;;8.65;7.53;;;23.10;71.40;;;24.25;54.28;97808.44;5022151;28;20061;-61
2023/09/09 09:11:45;;;;;;;12.27;7.82;;;23.20;70.80;;;24.28;54.05;97807.97;5017422;28;20475;-62
2023/09/09 09:14:13;;;;;;;10.60;8.15;;;23.20;70.10;;;24.32;53.99;97806.41;5069138;27;20050;-62
2023/09/09 09:16:43;;;;;;;13.95;8.43;;;23.30;69.90;;;24.38;54.03;97816.28;5027630;28;20071;-62
2023/09/09 09:19:21;;;;;;;11.30;8.43;;;23.40;69.50;;;24.43;53.94;97812.00;5004848;28;20076;-62
2023/09/09 09:21:50;;;;;;;8.57;7.57;;;23.40;69.80;;;24.48;53.99;97817.53;5025715;28;20076;-62
2023/09/09 09:24:24;;;;;;;11.70;8.85;;;23.50;69.70;;;24.55;53.83;97810.06;5022836;28;20519;-62
2023/09/09 09:26:55;;;;;;;8.85;7.93;;;23.60;70.00;;;24.59;53.58;97815.84;5092141;27;20050;-62
2023/09/09 09:29:23;;;;;;;9.13;8.25;;;23.60;69.20;;;24.64;54.12;97808.59;5017762;28;20049;-63
2023/09/09 09:31:54;;;;;;;8.40;7.50;;;23.70;69.80;;;24.70;53.96;97809.50;5015805;28;21035;-62
2023/09/09 09:34:33;;;;;;;10.18;9.20;;;23.80;70.80;;;24.76;53.77;97813.94;5017763;28;20123;-62
2023/09/09 09:37:12;;;;;;;9.52;8.15;;;23.80;69.60;;;24.79;53.69;97808.00;5017389;28;20409;-62
2023/09/09 09:39:40;;;;;;;8.95;8.13;;;23.90;68.80;;;24.87;53.76;97802.16;5002111;28;20057;-62
2023/09/09 09:42:11;;;;;;;14.02;9.20;;;23.90;69.20;;;24.90;53.27;97800.81;5018610;28;20053;-62
2023/09/09 09:44:39;;;;;;;10.35;9.20;;;24.00;68.70;;;24.94;52.87;97808.22;5021491;28;20050;-62
2023/09/09 09:47:08;;;;;;;9.00;7.97;;;24.10;67.70;;;25.01;52.63;97805.34;5005669;28;20054;-62
2023/09/09 09:49:43;;;;;;;11.77;8.13;;;24.20;67.20;;;25.08;52.59;97802.41;5020657;28;20049;-62
2023/09/09 09:52:23;;;;;;;8.88;7.63;;;24.20;66.70;;;25.10;51.62;97797.53;5011082;28;20052;-62
2023/09/09 09:54:53;;;;;;;10.73;8.60;;;24.30;64.50;;;25.17;51.82;97800.09;5021798;28;20068;-62
2023/09/09 09:57:26;;;;;;;8.00;7.20;;;24.30;65.10;;;25.24;51.30;97798.03;5014865;28;20689;-62
2023/09/09 09:59:53;;;;;;;;;;;24.40;62.70;;;25.30;51.25;97799.75;5020532;28;20717;-62
2023/09/09 10:02:21;;;;;;;8.68;7.28;;;24.40;63.30;;;25.33;50.75;97793.78;5013733;28;19921;-62
2023/09/09 10:04:51;;;;;;;9.02;6.95;;;24.40;63.30;;;25.40;49.90;97805.34;5021133;28;20042;-62
2023/09/09 10:07:23;;;;;;;8.73;7.65;;;24.50;62.80;;;25.45;50.11;97799.94;5017113;28;20389;-62
2023/09/09 10:10:04;;;;;;;7.65;6.85;;;24.60;62.50;;;25.48;49.26;97799.44;5018580;28;20045;-62
2023/09/09 10:12:50;;;;;;;8.82;7.45;;;24.60;61.40;;;25.54;50.02;97794.88;5018761;28;20046;-62
2023/09/09 10:15:20;;;;;;;10.60;7.25;;;24.60;62.70;;;25.62;50.17;97797.16;5014545;28;20389;-63
2023/09/09 10:17:52;;;;;;;10.70;7.38;;;24.60;63.50;;;25.64;49.83;97802.34;5005337;28;20049;-62
2023/09/09 10:20:23;;;;;;;8.93;8.13;;;24.80;62.90;;;25.71;50.08;97800.25;5012167;28;20378;-62